Salem, North Carolina
Current Conditions -  °F | °C
As of 11:35 AM on Saturday 22 Nov 2014 (Local Time) from KMRN Reporting Station
Clear Clear  
Wind Chill: 43°   Ceiling: Unl
Heat Index: 46°   Visibility: 10mi
Dew Point: 15°   Wind: 6mph
Humidity: 29%   Direction: 160°SSE
Pressure: 30.53"   Gusts: NA
Location:  35.7567°N, 81.7518°W
Report Text: KMRN 221635Z AUTO 16005KT 10SM CLR 08/M09 A3053 RMK AO2 T00781092
Loading
Personal Weather Stations






























Interactive Weather Map New forecast layout! Learn more

10-Day Weather Forecast

Advertisements
Track Severe Weather on mobile